Time;durP1;ratioP1;P1;durP2;ratioP2;P2;SDS_P1;SDS_P2;PMS_P1;PMS_P2;Temp;Humidity;BMP_temperature;BMP_pressure;BME280_temperature;BME280_humidity;BME280_pressure;Samples;Min_cycle;Max_cycle;Signal;HPM_P1;HPM_P2
2023/04/11 00:09:43;;;;;;;4.65;0.95;;;;;;;;;;20841762;28;20115;-63
2023/04/11 00:19:45;;;;;;;2.45;1.17;;;;;;;;;;20840363;28;20049;-63
2023/04/11 00:29:47;;;;;;;4.45;0.88;;;;;;;;;;20840409;28;20049;-64
2023/04/11 00:39:53;;;;;;;1.90;0.80;;;;;;;;;;20838268;28;20102;-64
2023/04/11 00:49:55;;;;;;;3.75;1.23;;;;;;;;;;20839064;28;20056;-63
2023/04/11 00:59:57;;;;;;;5.10;1.38;;;;;;;;;;20838095;28;20049;-63
2023/04/11 01:10:00;;;;;;;4.85;1.10;;;;;;;;;;20837145;28;20049;-64
2023/04/11 01:20:02;;;;;;;3.25;1.50;;;;;;;;;;20837719;28;20061;-64
2023/04/11 01:30:06;;;;;;;5.68;1.50;;;;;;;;;;20835869;28;20045;-64
2023/04/11 01:40:08;;;;;;;4.40;1.63;;;;;;;;;;20835299;28;20049;-64
2023/04/11 01:50:10;;;;;;;4.78;1.70;;;;;;;;;;20832328;28;20049;-64
2023/04/11 02:00:13;;;;;;;3.55;1.40;;;;;;;;;;20832500;28;20056;-63
2023/04/11 02:10:15;;;;;;;2.53;1.00;;;;;;;;;;20831871;28;20076;-64
2023/04/11 02:20:16;;;;;;;2.47;1.30;;;;;;;;;;20831778;28;20053;-63
2023/04/11 02:30:18;;;;;;;4.70;1.48;;;;;;;;;;20831871;28;20103;-64
2023/04/11 02:40:20;;;;;;;5.95;1.40;;;;;;;;;;20831540;28;20101;-63
2023/04/11 02:50:22;;;;;;;3.63;1.30;;;;;;;;;;20831224;28;20049;-64
2023/04/11 03:00:25;;;;;;;4.70;0.90;;;;;;;;;;20832159;28;20045;-63
2023/04/11 03:10:26;;;;;;;2.53;0.80;;;;;;;;;;20847096;28;20056;-63
2023/04/11 03:20:28;;;;;;;2.55;0.80;;;;;;;;;;20846804;28;20065;-64
2023/04/11 03:30:30;;;;;;;1.58;0.50;;;;;;;;;;20845280;28;20379;-63
2023/04/11 03:40:32;;;;;;;2.00;0.77;;;;;;;;;;20844662;28;20050;-63
2023/04/11 03:50:33;;;;;;;3.92;1.13;;;;;;;;;;20843740;28;20479;-63
2023/04/11 04:00:35;;;;;;;4.78;1.02;;;;;;;;;;20842950;28;20096;-63
2023/04/11 04:10:37;;;;;;;6.63;1.30;;;;;;;;;;20842091;28;20052;-63
2023/04/11 04:20:39;;;;;;;11.73;1.38;;;;;;;;;;20839408;28;20061;-63
2023/04/11 04:30:40;;;;;;;6.50;1.55;;;;;;;;;;20840544;28;20045;-64
2023/04/11 04:40:45;;;;;;;3.22;0.60;;;;;;;;;;20839892;28;20049;-63
2023/04/11 04:50:47;;;;;;;7.80;1.27;;;;;;;;;;20837609;28;20045;-63
2023/04/11 05:00:54;;;;;;;4.07;1.17;;;;;;;;;;20836791;28;20049;-64
2023/04/11 05:10:56;;;;;;;2.55;0.80;;;;;;;;;;20837247;28;20050;-63
2023/04/11 05:20:58;;;;;;;3.85;1.10;;;;;;;;;;20835565;28;20061;-63
2023/04/11 05:31:00;;;;;;;5.35;1.10;;;;;;;;;;20834676;28;20053;-64
2023/04/11 05:41:02;;;;;;;7.28;1.48;;;;;;;;;;20833688;28;20042;-64
2023/04/11 05:51:04;;;;;;;2.55;1.10;;;;;;;;;;20834271;28;20479;-67
2023/04/11 06:01:11;;;;;;;9.20;1.73;;;;;;;;;;20833112;28;20457;-67
2023/04/11 06:11:12;;;;;;;2.63;0.95;;;;;;;;;;20832510;28;20045;-66
2023/04/11 06:21:14;;;;;;;6.93;1.30;;;;;;;;;;20830502;28;20058;-66
2023/04/11 06:31:16;;;;;;;7.60;2.25;;;;;;;;;;20830379;28;20402;-65
2023/04/11 06:41:18;;;;;;;5.65;1.38;;;;;;;;;;20829904;28;20042;-66
2023/04/11 06:51:19;;;;;;;8.90;2.10;;;;;;;;;;20829924;28;20491;-66
2023/04/11 07:01:24;;;;;;;13.82;2.50;;;;;;;;;;20828835;28;20045;-66
2023/04/11 07:11:26;;;;;;;11.32;3.08;;;;;;;;;;20828426;28;20047;-67
2023/04/11 07:21:28;;;;;;;9.90;2.42;;;;;;;;;;20828351;28;20096;-66
2023/04/11 07:31:30;;;;;;;10.55;2.30;;;;;;;;;;20827636;28;20053;-66
2023/04/11 07:41:32;;;;;;;11.38;2.47;;;;;;;;;;20827775;28;20050;-66
2023/04/11 07:51:34;;;;;;;6.68;1.80;;;;;;;;;;20835879;28;20069;-66
2023/04/11 08:01:35;;;;;;;8.05;2.28;;;;;;;;;;20841216;28;20065;-66
2023/04/11 08:11:38;;;;;;;4.40;1.60;;;;;;;;;;20841991;28;20072;-67
2023/04/11 08:21:40;;;;;;;7.88;1.77;;;;;;;;;;20840222;28;20049;-66
2023/04/11 08:31:45;;;;;;;12.02;1.83;;;;;;;;;;20840430;28;20426;-64
2023/04/11 08:41:46;;;;;;;5.65;1.70;;;;;;;;;;20858464;28;20152;-70
2023/04/11 08:51:48;;;;;;;5.85;2.00;;;;;;;;;;20840504;28;20136;-65
2023/04/11 09:01:50;;;;;;;7.15;1.58;;;;;;;;;;20855594;28;20059;-65
2023/04/11 09:11:54;;;;;;;8.98;1.58;;;;;;;;;;20919686;28;20048;-64
2023/04/11 09:22:00;;;;;;;7.00;1.42;;;;;;;;;;20917279;28;20053;-62
2023/04/11 09:32:02;;;;;;;7.88;1.70;;;;;;;;;;20916758;28;20049;-62
2023/04/11 09:42:23;;;;;;;6.63;1.73;;;;;;;;;;20916283;28;20049;-61
2023/04/11 09:52:26;;;;;;;9.05;1.90;;;;;;;;;;20916400;28;20057;-62
2023/04/11 10:02:28;;;;;;;7.90;1.27;;;;;;;;;;20915611;28;20486;-63
2023/04/11 10:12:30;;;;;;;4.18;1.15;;;;;;;;;;20914110;28;20414;-60
2023/04/11 10:22:45;;;;;;;8.15;1.55;;;;;;;;;;20915195;28;20060;-68
2023/04/11 10:33:05;;;;;;;4.70;1.30;;;;;;;;;;20912561;28;20049;-69
2023/04/11 10:43:20;;;;;;;6.80;1.55;;;;;;;;;;20912787;28;20053;-68
2023/04/11 10:53:42;;;;;;;8.18;2.47;;;;;;;;;;20913445;28;20098;-67
2023/04/11 11:03:51;;;;;;;7.53;1.85;;;;;;;;;;20911600;28;20049;-64
2023/04/11 11:13:57;;;;;;;8.00;4.22;;;;;;;;;;20912118;28;20406;-65
2023/04/11 11:23:59;;;;;;;12.38;2.85;;;;;;;;;;20915569;28;20063;-66
2023/04/11 11:34:02;;;;;;;6.70;2.35;;;;;;;;;;20904118;28;20049;-64
2023/04/11 11:44:04;;;;;;;4.75;1.23;;;;;;;;;;20842007;28;20061;-63
2023/04/11 11:54:10;;;;;;;6.63;1.95;;;;;;;;;;20843243;28;20054;-63
2023/04/11 12:04:11;;;;;;;8.10;2.55;;;;;;;;;;20841396;28;20042;-64
2023/04/11 12:14:21;;;;;;;9.80;2.00;;;;;;;;;;20841581;28;20521;-63
2023/04/11 12:24:23;;;;;;;6.72;1.40;;;;;;;;;;20842184;28;20411;-64
2023/04/11 12:34:25;;;;;;;2.47;1.10;;;;;;;;;;20839355;28;20049;-64
2023/04/11 12:44:26;;;;;;;4.40;1.48;;;;;;;;;;20839104;28;20041;-64
2023/04/11 12:54:28;;;;;;;6.55;1.90;;;;;;;;;;20838428;28;20107;-64
2023/04/11 13:04:30;;;;;;;4.57;1.73;;;;;;;;;;20837481;28;20414;-64
2023/04/11 13:14:32;;;;;;;5.70;1.25;;;;;;;;;;20836888;28;20402;-63
2023/04/11 13:24:33;;;;;;;8.13;1.45;;;;;;;;;;20836709;28;20601;-64
2023/04/11 13:34:35;;;;;;;4.72;1.10;;;;;;;;;;20835041;28;20055;-64
2023/04/11 13:44:37;;;;;;;3.70;1.40;;;;;;;;;;20832328;28;20140;-63
2023/04/11 13:54:39;;;;;;;3.92;1.15;;;;;;;;;;20833584;28;20053;-65
2023/04/11 14:04:40;;;;;;;2.75;1.10;;;;;;;;;;20832832;28;20049;-66
2023/04/11 14:14:42;;;;;;;3.13;1.73;;;;;;;;;;20832551;28;20414;-66
2023/04/11 14:24:43;;;;;;;7.22;1.15;;;;;;;;;;20831767;28;20045;-65
2023/04/11 14:34:45;;;;;;;1.40;0.50;;;;;;;;;;20831571;28;20045;-66
2023/04/11 14:44:49;;;;;;;2.83;1.35;;;;;;;;;;20830195;28;20045;-65
2023/04/11 14:54:50;;;;;;;2.63;1.20;;;;;;;;;;20830834;28;20053;-65
2023/04/11 15:04:52;;;;;;;5.07;1.42;;;;;;;;;;20845781;28;20479;-67
2023/04/11 15:14:53;;;;;;;4.18;0.98;;;;;;;;;;20846411;28;20049;-66
2023/04/11 15:24:55;;;;;;;4.43;1.15;;;;;;;;;;20845668;28;20049;-66
2023/04/11 15:34:57;;;;;;;3.35;1.08;;;;;;;;;;20843516;28;20064;-64
2023/04/11 15:44:59;;;;;;;4.15;1.00;;;;;;;;;;20842895;28;20126;-72
2023/04/11 15:55:00;;;;;;;6.30;1.13;;;;;;;;;;20843295;28;20065;-62
2023/04/11 16:05:02;;;;;;;4.75;0.90;;;;;;;;;;20841145;28;20053;-71
2023/04/11 16:15:05;;;;;;;3.00;1.10;;;;;;;;;;20839312;28;20061;-68
2023/04/11 16:25:07;;;;;;;4.45;1.00;;;;;;;;;;20841290;28;20049;-69
2023/04/11 16:35:09;;;;;;;8.35;1.60;;;;;;;;;;20840737;28;20045;-71
2023/04/11 16:45:10;;;;;;;3.40;0.95;;;;;;;;;;20839391;28;20045;-63
2023/04/11 16:55:13;;;;;;;4.05;1.15;;;;;;;;;;20838352;28;20049;-69
2023/04/11 17:05:17;;;;;;;1.98;0.75;;;;;;;;;;20835853;28;20049;-68
2023/04/11 17:15:19;;;;;;;7.10;1.23;;;;;;;;;;20836303;28;20111;-71
2023/04/11 17:25:21;;;;;;;4.80;1.73;;;;;;;;;;20836185;28;20065;-71
2023/04/11 17:35:22;;;;;;;5.05;1.17;;;;;;;;;;20835620;28;20042;-70
2023/04/11 17:45:24;;;;;;;2.88;0.90;;;;;;;;;;20834032;28;20107;-70
2023/04/11 17:55:25;;;;;;;5.50;1.30;;;;;;;;;;20833399;28;20509;-76
2023/04/11 18:05:29;;;;;;;3.63;1.00;;;;;;;;;;20833403;28;20053;-69
2023/04/11 18:15:33;;;;;;;2.65;0.80;;;;;;;;;;20830321;28;20061;-69
2023/04/11 18:25:34;;;;;;;8.82;4.47;;;;;;;;;;20831714;28;20054;-73
2023/04/11 18:35:36;;;;;;;6.68;2.75;;;;;;;;;;20831643;28;20132;-73
2023/04/11 18:45:38;;;;;;;3.65;1.40;;;;;;;;;;20830841;28;20053;-72
2023/04/11 18:55:39;;;;;;;10.45;1.77;;;;;;;;;;20829038;28;20392;-72
2023/04/11 19:05:41;;;;;;;10.70;4.60;;;;;;;;;;20828596;28;20045;-70
2023/04/11 19:15:43;;;;;;;3.65;1.55;;;;;;;;;;20829917;28;20073;-70
2023/04/11 19:25:46;;;;;;;5.70;2.20;;;;;;;;;;20827431;28;20053;-71
2023/04/11 19:35:48;;;;;;;4.38;1.25;;;;;;;;;;20828856;28;20123;-72
2023/04/11 19:45:50;;;;;;;2.13;0.88;;;;;;;;;;20834573;28;20068;-72
2023/04/11 19:55:52;;;;;;;4.80;1.58;;;;;;;;;;20842121;28;20050;-70
2023/04/11 20:05:54;;;;;;;6.63;1.10;;;;;;;;;;20842907;28;20053;-71
2023/04/11 20:15:56;;;;;;;7.75;3.78;;;;;;;;;;20840745;28;20418;-71
2023/04/11 20:25:57;;;;;;;5.30;1.63;;;;;;;;;;20838646;28;20056;-72
2023/04/11 20:36:01;;;;;;;4.13;1.58;;;;;;;;;;20839492;28;20041;-70
2023/04/11 20:46:07;;;;;;;3.63;1.00;;;;;;;;;;20838537;28;20049;-71
2023/04/11 20:56:10;;;;;;;3.80;1.02;;;;;;;;;;20836668;28;20098;-71
2023/04/11 21:06:12;;;;;;;3.42;0.98;;;;;;;;;;20838460;28;20076;-71
2023/04/11 21:16:14;;;;;;;1.83;0.98;;;;;;;;;;20836632;28;20053;-72
2023/04/11 21:26:16;;;;;;;4.13;1.10;;;;;;;;;;20835166;28;20042;-71
2023/04/11 21:36:17;;;;;;;1.33;0.60;;;;;;;;;;20833062;28;20049;-72
2023/04/11 21:46:19;;;;;;;2.25;0.90;;;;;;;;;;20833484;28;20071;-70
2023/04/11 21:56:20;;;;;;;1.15;0.50;;;;;;;;;;20834616;28;20060;-71
2023/04/11 22:06:25;;;;;;;2.90;0.75;;;;;;;;;;20832265;28;20045;-70
2023/04/11 22:16:30;;;;;;;2.17;0.73;;;;;;;;;;20832837;28;20056;-71
2023/04/11 22:26:35;;;;;;;2.53;0.85;;;;;;;;;;20832761;28;20095;-70
2023/04/11 22:36:36;;;;;;;2.22;0.65;;;;;;;;;;20832349;28;20111;-71
2023/04/11 22:46:38;;;;;;;1.98;0.80;;;;;;;;;;20831727;28;20045;-70
2023/04/11 22:56:40;;;;;;;4.22;0.77;;;;;;;;;;20830502;28;20107;-71
2023/04/11 23:06:42;;;;;;;3.15;1.08;;;;;;;;;;20830958;28;20099;-70
2023/04/11 23:16:44;;;;;;;3.30;0.70;;;;;;;;;;20830413;28;20057;-70
2023/04/11 23:26:46;;;;;;;3.10;0.80;;;;;;;;;;20846262;28;20072;-70
2023/04/11 23:36:47;;;;;;;1.35;0.60;;;;;;;;;;20845610;28;20092;-70
2023/04/11 23:46:49;;;;;;;1.30;0.52;;;;;;;;;;20844821;28;20414;-69
2023/04/11 23:56:51;;;;;;;2.08;0.75;;;;;;;;;;20844245;28;20060;-70
